Time;durP1;ratioP1;P1;durP2;ratioP2;P2;SDS_P1;SDS_P2;PMS_P1;PMS_P2;Temp;Humidity;BMP_temperature;BMP_pressure;BME280_temperature;BME280_humidity;BME280_pressure;Samples;Min_cycle;Max_cycle;Signal;HPM_P1;HPM_P2
2024/01/20 00:00:59;;;;;;;17.47;9.53;;;0.50;99.90;;;;;;5055308;28;20494;-60
2024/01/20 00:03:26;;;;;;;14.73;9.60;;;0.50;99.90;;;;;;5055451;28;20507;-60
2024/01/20 00:05:53;;;;;;;18.33;10.33;;;0.40;99.90;;;;;;5055211;28;20437;-60
2024/01/20 00:08:19;;;;;;;15.17;9.77;;;0.30;99.90;;;;;;5054948;28;20799;-60
2024/01/20 00:10:46;;;;;;;14.97;9.57;;;0.20;99.90;;;;;;5055053;28;20469;-60
2024/01/20 00:13:13;;;;;;;19.97;10.03;;;0.10;99.90;;;;;;5055218;28;20816;-60
2024/01/20 00:15:41;;;;;;;17.00;10.23;;;0.10;99.90;;;;;;5055079;28;20630;-60
2024/01/20 00:18:08;;;;;;;24.13;11.40;;;0.10;99.90;;;;;;5055129;28;20448;-60
2024/01/20 00:20:35;;;;;;;15.00;10.00;;;0.10;99.90;;;;;;5054910;28;20535;-60
2024/01/20 00:23:01;;;;;;;19.33;10.93;;;0.10;99.90;;;;;;5055081;28;20445;-60
2024/01/20 00:25:27;;;;;;;18.60;10.43;;;0.10;99.90;;;;;;5054639;28;20452;-60
2024/01/20 00:27:54;;;;;;;16.93;9.53;;;0.10;99.90;;;;;;5054946;28;20207;-60
2024/01/20 00:30:21;;;;;;;17.67;11.07;;;0.00;99.90;;;;;;5054822;28;20441;-59
2024/01/20 00:32:49;;;;;;;16.70;11.20;;;0.10;99.90;;;;;;5054799;28;20445;-60
2024/01/20 00:35:16;;;;;;;16.83;10.63;;;0.10;99.90;;;;;;5054736;28;20481;-60
2024/01/20 00:37:42;;;;;;;18.83;11.90;;;0.20;99.90;;;;;;5054631;28;20445;-60
2024/01/20 00:40:10;;;;;;;18.97;10.87;;;0.20;99.90;;;;;;5054383;28;20556;-59
2024/01/20 00:42:37;;;;;;;16.27;9.77;;;0.20;99.90;;;;;;5054344;28;21085;-60
2024/01/20 00:45:05;;;;;;;18.97;11.30;;;0.30;99.90;;;;;;5054690;28;20445;-59
2024/01/20 00:47:32;;;;;;;19.47;10.90;;;0.30;99.90;;;;;;5054809;28;20441;-60
2024/01/20 00:50:00;;;;;;;18.00;10.50;;;0.30;99.90;;;;;;5054012;28;20817;-59
2024/01/20 00:52:27;;;;;;;22.43;12.10;;;0.30;99.90;;;;;;5054081;28;20457;-60
2024/01/20 00:54:53;;;;;;;16.10;10.40;;;0.40;99.90;;;;;;5054049;28;20453;-59
2024/01/20 00:57:20;;;;;;;15.17;9.20;;;0.40;99.90;;;;;;5053577;28;20465;-59
2024/01/20 00:59:47;;;;;;;17.00;9.50;;;0.30;99.90;;;;;;5053831;28;20449;-59
2024/01/20 01:02:16;;;;;;;17.97;9.90;;;0.30;99.90;;;;;;5053848;28;20485;-59
2024/01/20 01:04:42;;;;;;;15.50;9.40;;;0.20;99.90;;;;;;5054026;28;20445;-59
2024/01/20 01:07:10;;;;;;;18.40;10.17;;;0.20;99.90;;;;;;5054107;28;20449;-59
2024/01/20 01:09:37;;;;;;;15.40;10.60;;;0.20;99.90;;;;;;5053287;28;20456;-59
2024/01/20 01:12:04;;;;;;;14.17;9.20;;;0.20;99.90;;;;;;5053960;28;20469;-59
2024/01/20 01:14:31;;;;;;;13.23;8.40;;;0.10;99.90;;;;;;5053545;28;20947;-59
2024/01/20 01:16:58;;;;;;;18.53;9.53;;;0.00;99.90;;;;;;5053857;28;20453;-59
2024/01/20 01:19:24;;;;;;;14.90;8.97;;;0.00;99.90;;;;;;5053852;28;20450;-59
2024/01/20 01:21:51;;;;;;;18.10;10.03;;;-0.10;99.90;;;;;;5053544;28;20525;-59
2024/01/20 01:24:19;;;;;;;17.80;10.30;;;-0.20;99.90;;;;;;5053830;28;20442;-59
2024/01/20 01:26:46;;;;;;;17.87;9.93;;;-0.20;99.90;;;;;;5053742;28;20445;-59
2024/01/20 01:29:13;;;;;;;21.40;10.93;;;-0.20;99.90;;;;;;5053786;28;20441;-59
2024/01/20 01:31:39;;;;;;;18.90;12.03;;;-0.20;99.90;;;;;;5053548;28;20461;-59
2024/01/20 01:34:06;;;;;;;23.10;12.33;;;-0.20;99.90;;;;;;5054144;28;20507;-59
2024/01/20 01:36:33;;;;;;;22.90;12.87;;;-0.20;99.90;;;;;;5053742;28;20445;-59
2024/01/20 01:39:00;;;;;;;22.00;11.70;;;-0.20;99.90;;;;;;5053707;28;20445;-59
2024/01/20 01:41:28;;;;;;;19.03;11.20;;;-0.20;99.90;;;;;;5053526;28;20486;-59
2024/01/20 01:43:54;;;;;;;23.70;13.63;;;-0.20;99.90;;;;;;5053401;28;20812;-59
2024/01/20 01:46:21;;;;;;;19.33;12.77;;;-0.20;99.90;;;;;;5053457;28;20452;-59
2024/01/20 01:48:48;;;;;;;23.57;12.30;;;-0.20;99.90;;;;;;5053361;28;20940;-59
2024/01/20 01:51:15;;;;;;;20.47;11.03;;;-0.30;99.90;;;;;;5053435;28;20911;-59
2024/01/20 01:53:42;;;;;;;23.50;13.03;;;-0.20;99.90;;;;;;5053109;28;20464;-58
2024/01/20 01:56:09;;;;;;;24.00;12.93;;;-0.20;99.90;;;;;;5053475;28;20445;-59
2024/01/20 01:58:37;;;;;;;23.13;12.47;;;-0.30;99.90;;;;;;5053773;28;20450;-59
2024/01/20 02:01:04;;;;;;;19.90;11.47;;;-0.30;99.90;;;;;;5053316;28;20461;-59
2024/01/20 02:03:32;;;;;;;25.30;12.53;;;-0.20;99.90;;;;;;5053499;28;20450;-59
2024/01/20 02:05:59;;;;;;;21.40;12.53;;;-0.20;99.90;;;;;;5053435;28;20516;-58
2024/01/20 02:08:27;;;;;;;20.37;10.70;;;-0.20;99.90;;;;;;5053524;28;20449;-58
2024/01/20 02:10:55;;;;;;;24.57;12.77;;;-0.10;99.90;;;;;;5053312;28;20520;-59
2024/01/20 02:13:22;;;;;;;17.97;10.83;;;-0.10;99.90;;;;;;5053235;28;20445;-59
2024/01/20 02:15:50;;;;;;;17.77;10.10;;;0.00;99.90;;;;;;5053627;28;20438;-59
2024/01/20 02:18:17;;;;;;;22.60;12.93;;;-0.10;99.90;;;;;;5053571;28;20441;-59
2024/01/20 02:20:43;;;;;;;22.83;10.63;;;-0.10;99.90;;;;;;5054614;28;20470;-59
2024/01/20 02:23:11;;;;;;;21.43;12.30;;;-0.10;99.90;;;;;;5058846;28;20487;-59
2024/01/20 02:25:38;;;;;;;24.03;11.40;;;0.00;99.90;;;;;;5059560;28;20452;-59
2024/01/20 02:28:06;;;;;;;26.93;11.73;;;-0.10;99.90;;;;;;5058719;28;20445;-58
2024/01/20 02:30:32;;;;;;;21.23;10.63;;;-0.10;99.90;;;;;;5059091;28;20472;-59
2024/01/20 02:32:59;;;;;;;16.57;10.47;;;-0.20;99.90;;;;;;5057460;28;20444;-59
2024/01/20 02:35:26;;;;;;;17.83;11.07;;;-0.20;99.90;;;;;;5057929;28;20468;-59
2024/01/20 02:37:52;;;;;;;17.37;10.33;;;-0.20;99.90;;;;;;5057655;28;20453;-59
2024/01/20 02:40:20;;;;;;;18.80;10.70;;;-0.20;99.90;;;;;;5057258;28;20804;-60
2024/01/20 02:42:47;;;;;;;19.00;10.80;;;-0.20;99.90;;;;;;5057247;28;20481;-59
2024/01/20 02:45:14;;;;;;;21.57;10.73;;;-0.20;99.90;;;;;;5056939;28;20445;-59
2024/01/20 02:47:40;;;;;;;19.10;10.63;;;-0.20;99.90;;;;;;5057135;28;20453;-59
2024/01/20 02:50:08;;;;;;;25.30;12.20;;;-0.30;99.90;;;;;;5056884;28;20449;-59
2024/01/20 02:52:35;;;;;;;17.10;11.23;;;-0.30;99.90;;;;;;5056314;28;20974;-59
2024/01/20 02:55:02;;;;;;;16.83;10.60;;;-0.30;99.90;;;;;;5056791;28;20441;-59
2024/01/20 02:57:30;;;;;;;16.63;10.20;;;-0.30;99.90;;;;;;5056916;28;20468;-59
2024/01/20 02:59:56;;;;;;;18.70;11.47;;;-0.30;99.90;;;;;;5056785;28;20448;-59
2024/01/20 03:02:23;;;;;;;22.87;10.93;;;-0.30;99.90;;;;;;5056389;28;20487;-58
2024/01/20 03:04:50;;;;;;;17.63;10.53;;;-0.30;99.90;;;;;;5056387;28;20437;-59
2024/01/20 03:07:17;;;;;;;21.43;11.00;;;-0.40;99.40;;;;;;5056435;28;20446;-58
2024/01/20 03:09:44;;;;;;;15.67;9.80;;;-0.50;99.00;;;;;;5056167;28;20449;-58
2024/01/20 03:12:11;;;;;;;20.47;9.70;;;-0.50;98.90;;;;;;5056344;28;20453;-59
2024/01/20 03:14:39;;;;;;;18.87;10.07;;;-0.60;98.60;;;;;;5056916;28;20450;-59
2024/01/20 03:17:05;;;;;;;22.60;11.33;;;-0.70;98.60;;;;;;5056252;28;20841;-59
2024/01/20 03:19:32;;;;;;;18.00;11.50;;;-0.70;99.00;;;;;;5056323;28;20445;-59
2024/01/20 03:21:59;;;;;;;17.30;9.73;;;-0.80;99.20;;;;;;5055955;28;20488;-59
2024/01/20 03:24:26;;;;;;;18.30;10.40;;;-0.80;99.40;;;;;;5055799;28;20445;-59
2024/01/20 03:26:54;;;;;;;19.50;11.30;;;-0.80;99.80;;;;;;5056198;28;20445;-58
2024/01/20 03:29:21;;;;;;;26.43;11.80;;;-0.80;99.90;;;;;;5056060;28;20473;-59
2024/01/20 03:31:50;;;;;;;18.40;11.10;;;-0.80;99.90;;;;;;5055351;28;21010;-59
2024/01/20 03:34:16;;;;;;;22.03;10.57;;;-0.70;99.90;;;;;;5055220;28;20446;-58
2024/01/20 03:36:43;;;;;;;19.70;12.20;;;-0.80;99.90;;;;;;5055804;28;20437;-58
2024/01/20 03:39:10;;;;;;;18.60;12.10;;;-0.90;99.80;;;;;;5055775;28;20449;-58
2024/01/20 03:41:36;;;;;;;19.60;10.80;;;-0.90;99.90;;;;;;5055691;28;20544;-58
2024/01/20 03:44:03;;;;;;;24.97;11.80;;;-0.80;99.90;;;;;;5055657;28;20449;-58
2024/01/20 03:46:30;;;;;;;19.53;11.40;;;-0.70;99.90;;;;;;5055568;28;20445;-58
2024/01/20 03:48:58;;;;;;;24.33;11.77;;;-0.70;99.90;;;;;;5055549;28;20449;-58
2024/01/20 03:51:26;;;;;;;23.50;12.43;;;-0.60;99.90;;;;;;5055095;28;20461;-58
2024/01/20 03:53:53;;;;;;;23.23;11.90;;;-0.70;99.90;;;;;;5055365;28;20440;-58
2024/01/20 03:56:19;;;;;;;20.27;11.23;;;-0.60;99.90;;;;;;5055468;28;20453;-58
2024/01/20 03:58:46;;;;;;;20.17;11.13;;;-0.60;99.90;;;;;;5055423;28;20468;-58
2024/01/20 04:01:13;;;;;;;24.03;11.40;;;-0.60;99.90;;;;;;5055351;28;20470;-58
2024/01/20 04:03:39;;;;;;;22.10;12.20;;;-0.50;99.90;;;;;;5055199;28;20489;-58
2024/01/20 04:06:08;;;;;;;20.17;12.20;;;-0.50;99.90;;;;;;5054988;28;21027;-58
2024/01/20 04:08:35;;;;;;;19.47;11.97;;;-0.50;99.90;;;;;;5055235;28;20507;-58
2024/01/20 04:11:01;;;;;;;27.73;11.97;;;-0.50;99.90;;;;;;5054658;28;20972;-58
2024/01/20 04:13:28;;;;;;;22.10;12.03;;;-0.40;99.90;;;;;;5054968;28;20448;-58
2024/01/20 04:15:55;;;;;;;22.13;10.70;;;-0.50;99.90;;;;;;5055024;28;20441;-58
2024/01/20 04:18:22;;;;;;;21.30;11.00;;;-0.40;99.90;;;;;;5055000;28;20446;-58
2024/01/20 04:20:48;;;;;;;22.27;10.80;;;-0.50;99.90;;;;;;5054970;28;20466;-58
2024/01/20 04:23:17;;;;;;;19.23;11.00;;;-0.50;99.90;;;;;;5054747;28;20474;-58
2024/01/20 04:25:43;;;;;;;21.70;9.93;;;-0.40;99.90;;;;;;5054981;28;20483;-58
2024/01/20 04:28:10;;;;;;;20.57;10.90;;;-0.50;99.90;;;;;;5054889;28;20441;-58
2024/01/20 04:30:37;;;;;;;19.93;10.60;;;-0.50;99.90;;;;;;5054681;28;20469;-58
2024/01/20 04:33:04;;;;;;;17.20;11.63;;;-0.50;99.90;;;;;;5054636;28;20453;-58
2024/01/20 04:35:30;;;;;;;20.53;10.83;;;-0.40;99.90;;;;;;5054688;28;20453;-58
2024/01/20 04:37:57;;;;;;;18.77;11.23;;;-0.40;99.90;;;;;;5054591;28;20450;-58
2024/01/20 04:40:25;;;;;;;30.90;12.03;;;-0.40;99.90;;;;;;5054259;28;21146;-58
2024/01/20 04:42:52;;;;;;;20.27;11.03;;;-0.40;99.90;;;;;;5054533;28;20903;-58
2024/01/20 04:45:19;;;;;;;16.90;10.43;;;-0.40;99.90;;;;;;5053472;28;20852;-58
2024/01/20 04:47:46;;;;;;;18.90;10.40;;;-0.40;99.90;;;;;;5054434;28;20442;-58
2024/01/20 04:50:12;;;;;;;19.53;10.80;;;-0.40;99.90;;;;;;5054237;28;20445;-58
2024/01/20 04:52:39;;;;;;;25.23;11.33;;;-0.40;99.90;;;;;;5053909;28;20450;-58
2024/01/20 04:55:06;;;;;;;20.40;11.23;;;-0.40;99.90;;;;;;5054307;28;20452;-58
2024/01/20 04:57:34;;;;;;;20.67;11.87;;;-0.40;99.90;;;;;;5054145;28;20464;-58
2024/01/20 05:00:01;;;;;;;19.20;10.80;;;-0.40;99.90;;;;;;5054144;28;20460;-58
2024/01/20 05:02:27;;;;;;;23.57;10.50;;;-0.40;99.90;;;;;;5054078;28;20488;-58
2024/01/20 05:04:54;;;;;;;22.87;11.33;;;-0.40;99.90;;;;;;5054088;28;20457;-58
2024/01/20 05:07:21;;;;;;;22.97;11.20;;;-0.40;99.90;;;;;;5053976;28;20464;-58
2024/01/20 05:09:47;;;;;;;22.40;12.63;;;-0.40;99.90;;;;;;5053956;28;20448;-58
2024/01/20 05:12:14;;;;;;;18.63;11.60;;;-0.40;99.90;;;;;;5053576;28;20480;-58
2024/01/20 05:14:42;;;;;;;19.53;11.90;;;-0.40;99.90;;;;;;5053931;28;20453;-58
2024/01/20 05:17:09;;;;;;;21.73;11.27;;;-0.40;99.90;;;;;;5053906;28;20464;-58
2024/01/20 05:19:38;;;;;;;20.47;10.43;;;-0.40;99.90;;;;;;5053866;28;20484;-58
2024/01/20 05:22:04;;;;;;;19.30;11.27;;;-0.40;99.90;;;;;;5053516;28;20980;-58
2024/01/20 05:24:31;;;;;;;16.17;9.73;;;-0.40;99.90;;;;;;5053348;28;20503;-58
2024/01/20 05:26:57;;;;;;;16.37;10.07;;;-0.40;99.90;;;;;;5053691;28;20207;-58
2024/01/20 05:29:24;;;;;;;19.40;10.10;;;-0.40;99.90;;;;;;5053371;28;20988;-58
2024/01/20 05:31:52;;;;;;;20.43;12.07;;;-0.40;99.90;;;;;;5053468;28;20462;-58
2024/01/20 05:34:19;;;;;;;25.10;12.67;;;-0.40;99.90;;;;;;5054458;28;20796;-58
2024/01/20 05:36:45;;;;;;;18.70;11.27;;;-0.40;99.90;;;;;;5053630;28;20456;-58
2024/01/20 05:39:12;;;;;;;21.00;11.37;;;-0.40;99.90;;;;;;5053516;28;20457;-58
2024/01/20 05:41:39;;;;;;;21.23;11.80;;;-0.50;99.90;;;;;;5053424;28;20457;-58
2024/01/20 05:44:05;;;;;;;19.80;11.27;;;-0.50;99.90;;;;;;5055477;28;20478;-59
2024/01/20 05:46:32;;;;;;;21.80;11.83;;;-0.50;99.90;;;;;;5055561;28;20967;-58
2024/01/20 05:49:00;;;;;;;22.80;11.40;;;-0.50;99.90;;;;;;5054442;28;20446;-58
2024/01/20 05:51:27;;;;;;;17.17;10.83;;;-0.50;99.90;;;;;;5054391;28;20466;-58
2024/01/20 05:53:54;;;;;;;20.20;11.30;;;-0.50;99.90;;;;;;5054068;28;20418;-58
2024/01/20 05:56:21;;;;;;;15.27;10.57;;;-0.50;99.90;;;;;;5053713;28;20449;-58
2024/01/20 05:58:48;;;;;;;22.63;12.80;;;-0.50;99.90;;;;;;5054551;28;20481;-58
2024/01/20 06:01:14;;;;;;;24.97;15.17;;;-0.60;99.90;;;;;;5053254;28;20465;-58
2024/01/20 06:03:41;;;;;;;21.00;12.87;;;-0.60;99.90;;;;;;5053518;28;20485;-58
2024/01/20 06:06:09;;;;;;;20.13;11.30;;;-0.60;99.90;;;;;;5053406;28;20449;-58
2024/01/20 06:08:36;;;;;;;21.60;11.83;;;-0.60;99.90;;;;;;5053385;28;20446;-58
2024/01/20 06:11:03;;;;;;;18.20;10.47;;;-0.60;99.90;;;;;;5053197;28;20901;-58
2024/01/20 06:13:30;;;;;;;17.67;11.03;;;-0.60;99.90;;;;;;5053360;28;20499;-58
2024/01/20 06:15:56;;;;;;;20.00;12.10;;;-0.60;99.90;;;;;;5053174;28;20481;-58
2024/01/20 06:18:23;;;;;;;16.17;10.17;;;-0.50;99.90;;;;;;5053317;28;20849;-58
2024/01/20 06:20:50;;;;;;;17.27;11.07;;;-0.50;99.90;;;;;;5053229;28;20488;-58
2024/01/20 06:23:18;;;;;;;17.17;10.90;;;-0.60;99.90;;;;;;5053115;28;20488;-58
2024/01/20 06:25:44;;;;;;;14.90;10.03;;;-0.60;99.90;;;;;;5053143;28;20448;-58
2024/01/20 06:28:11;;;;;;;18.20;11.00;;;-0.60;99.90;;;;;;5053086;28;20449;-58
2024/01/20 06:30:38;;;;;;;18.00;10.63;;;-0.60;99.90;;;;;;5052977;28;20493;-58
2024/01/20 06:33:05;;;;;;;19.70;10.43;;;-0.60;99.90;;;;;;5052998;28;20449;-58
2024/01/20 06:35:32;;;;;;;16.70;10.83;;;-0.60;99.90;;;;;;5052637;28;20982;-58
2024/01/20 06:37:58;;;;;;;15.27;10.40;;;-0.60;99.90;;;;;;5053056;28;20449;-58
2024/01/20 06:40:26;;;;;;;17.63;11.10;;;-0.60;99.90;;;;;;5052800;28;21690;-58
2024/01/20 06:42:53;;;;;;;15.13;9.73;;;-0.60;99.90;;;;;;5052869;28;20493;-58
2024/01/20 06:45:20;;;;;;;15.47;10.20;;;-0.60;99.90;;;;;;5052876;28;20445;-58
2024/01/20 06:47:46;;;;;;;17.40;9.97;;;-0.60;99.90;;;;;;5052939;28;20447;-58
2024/01/20 06:50:15;;;;;;;17.47;10.07;;;-0.60;99.40;;;;;;5052487;28;20962;-58
2024/01/20 06:52:41;;;;;;;14.53;10.03;;;-0.70;98.70;;;;;;5052425;28;20469;-57
2024/01/20 06:55:08;;;;;;;12.43;8.90;;;-0.70;98.70;;;;;;5052863;28;20468;-58
2024/01/20 06:57:36;;;;;;;17.03;10.10;;;-0.70;98.60;;;;;;5052962;28;20540;-58
2024/01/20 07:00:07;;;;;;;16.33;10.17;;;-0.80;98.80;;;;;;5052737;28;20448;-58
2024/01/20 07:02:34;;;;;;;19.23;10.50;;;-0.80;98.90;;;;;;5052944;28;20430;-58
2024/01/20 07:05:01;;;;;;;15.50;9.67;;;-0.90;98.80;;;;;;5052739;28;20558;-58
2024/01/20 07:07:27;;;;;;;21.67;9.87;;;-1.00;98.60;;;;;;5053151;28;20473;-58
2024/01/20 07:09:54;;;;;;;15.13;8.50;;;-1.00;98.40;;;;;;5056325;28;20448;-58
2024/01/20 07:12:22;;;;;;;15.10;9.10;;;-1.00;98.10;;;;;;5055847;28;21025;-58
2024/01/20 07:14:50;;;;;;;17.37;8.50;;;-1.10;96.50;;;;;;5056367;28;20481;-58
2024/01/20 07:17:16;;;;;;;21.20;10.47;;;-1.30;96.00;;;;;;5056265;28;20974;-58
2024/01/20 07:19:43;;;;;;;20.87;9.70;;;-1.40;95.90;;;;;;5056384;28;20449;-58
2024/01/20 07:22:10;;;;;;;18.23;10.00;;;-1.50;95.20;;;;;;5056153;28;20469;-58
2024/01/20 07:24:37;;;;;;;20.70;9.53;;;-1.60;95.30;;;;;;5055756;28;21117;-58
2024/01/20 07:27:04;;;;;;;16.63;10.30;;;-1.70;95.30;;;;;;5056243;28;20441;-58
2024/01/20 07:29:30;;;;;;;15.23;10.10;;;-1.80;95.40;;;;;;5055992;28;20470;-58
2024/01/20 07:31:58;;;;;;;16.27;10.07;;;-1.90;95.40;;;;;;5055873;28;20465;-57
2024/01/20 07:34:25;;;;;;;15.80;10.00;;;-1.90;95.90;;;;;;5055836;28;20441;-58
2024/01/20 07:36:52;;;;;;;13.60;10.10;;;-1.90;96.70;;;;;;5055771;28;20441;-58
2024/01/20 07:39:18;;;;;;;14.00;9.00;;;-1.90;97.20;;;;;;5055759;28;20803;-57
2024/01/20 07:41:45;;;;;;;18.27;11.43;;;-1.90;97.60;;;;;;5055779;28;20489;-57
2024/01/20 07:44:12;;;;;;;18.07;9.53;;;-1.80;98.20;;;;;;5055829;28;20485;-57
2024/01/20 07:46:38;;;;;;;15.70;9.67;;;-1.80;97.20;;;;;;5055821;28;20453;-58
2024/01/20 07:49:06;;;;;;;14.03;9.03;;;-1.90;96.40;;;;;;5055997;28;20442;-57
2024/01/20 07:51:33;;;;;;;21.63;10.70;;;-2.00;95.90;;;;;;5055525;28;20462;-57
2024/01/20 07:54:00;;;;;;;14.80;8.73;;;-2.00;96.60;;;;;;5055333;28;20896;-58
2024/01/20 07:56:27;;;;;;;14.30;10.73;;;-2.00;96.80;;;;;;5055502;28;20449;-57
2024/01/20 07:58:54;;;;;;;17.90;9.83;;;-2.10;96.70;;;;;;5055496;28;20547;-57
2024/01/20 08:01:21;;;;;;;15.93;9.40;;;-2.00;98.50;;;;;;5055366;28;20465;-57
2024/01/20 08:03:47;;;;;;;12.43;8.53;;;-2.00;98.30;;;;;;5055382;28;20478;-57
2024/01/20 08:06:15;;;;;;;14.00;8.50;;;-2.10;97.10;;;;;;5055349;28;20449;-57
2024/01/20 08:08:43;;;;;;;15.73;9.73;;;-2.00;96.20;;;;;;5055201;28;20445;-57
2024/01/20 08:11:10;;;;;;;12.93;8.70;;;-2.10;95.00;;;;;;5055069;28;20487;-56
2024/01/20 08:13:36;;;;;;;15.77;8.90;;;-2.30;95.20;;;;;;5055336;28;20438;-57
2024/01/20 08:16:03;;;;;;;12.20;8.07;;;-2.30;95.50;;;;;;5055297;28;20445;-57
2024/01/20 08:18:30;;;;;;;13.70;8.70;;;-2.40;96.90;;;;;;5055037;28;20445;-57
2024/01/20 08:20:57;;;;;;;12.53;8.47;;;-2.30;97.60;;;;;;5055218;28;20576;-57
2024/01/20 08:23:25;;;;;;;14.27;8.53;;;-2.20;99.10;;;;;;5054620;28;20939;-57
2024/01/20 08:25:51;;;;;;;19.03;9.77;;;-2.10;99.90;;;;;;5054633;28;20947;-57
2024/01/20 08:28:18;;;;;;;18.00;8.80;;;-2.10;99.90;;;;;;5054947;28;20480;-57
2024/01/20 08:30:45;;;;;;;17.63;8.10;;;-2.00;99.90;;;;;;5054991;28;20469;-57
2024/01/20 08:33:12;;;;;;;11.57;7.93;;;-1.90;99.90;;;;;;5054597;28;20442;-57
2024/01/20 08:35:38;;;;;;;12.87;7.90;;;-1.90;99.90;;;;;;5054387;28;20932;-57
2024/01/20 08:38:05;;;;;;;16.13;8.30;;;-1.80;99.90;;;;;;5054875;28;20450;-57
2024/01/20 08:40:33;;;;;;;10.63;7.30;;;-1.80;99.90;;;;;;5054498;28;21006;-57
2024/01/20 08:43:00;;;;;;;12.13;7.80;;;-1.80;99.90;;;;;;5054836;28;20523;-57
2024/01/20 08:45:26;;;;;;;12.47;7.33;;;-1.80;99.80;;;;;;5054703;28;20493;-57
2024/01/20 08:47:53;;;;;;;12.90;6.63;;;-1.80;99.90;;;;;;5054636;28;20449;-57
2024/01/20 08:50:20;;;;;;;11.17;7.10;;;-1.90;99.90;;;;;;5054124;28;20867;-57
2024/01/20 08:52:47;;;;;;;10.80;6.93;;;-1.90;99.90;;;;;;5053917;28;20508;-57
2024/01/20 08:55:13;;;;;;;8.20;5.97;;;-1.80;99.90;;;;;;5055320;28;20442;-56
2024/01/20 08:57:41;;;;;;;10.10;6.80;;;-1.80;99.90;;;;;;5056623;28;20441;-57
2024/01/20 09:00:11;;;;;;;8.57;5.50;;;-1.80;99.90;;;;;;5055856;28;20450;-57
2024/01/20 09:02:38;;;;;;;11.47;7.03;;;-1.80;99.90;;;;;;5054744;28;20892;-57
2024/01/20 09:05:05;;;;;;;11.33;6.43;;;-1.90;99.90;;;;;;5054813;28;20489;-57
2024/01/20 09:07:32;;;;;;;8.17;6.40;;;-2.00;99.90;;;;;;5054587;28;20445;-57
2024/01/20 09:10:00;;;;;;;7.80;5.37;;;-2.00;99.90;;;;;;5054444;28;20445;-57
2024/01/20 09:12:26;;;;;;;11.00;6.13;;;-2.10;99.90;;;;;;5054292;28;20466;-57
2024/01/20 09:14:55;;;;;;;10.40;5.70;;;-2.20;99.90;;;;;;5054117;28;20449;-57
2024/01/20 09:17:22;;;;;;;8.37;5.43;;;-2.20;99.90;;;;;;5054099;28;20481;-57
2024/01/20 09:19:49;;;;;;;16.10;6.77;;;-2.10;99.90;;;;;;5054377;28;20450;-57
2024/01/20 09:22:17;;;;;;;9.57;6.70;;;-2.10;99.90;;;;;;5053953;28;20470;-57
2024/01/20 09:24:44;;;;;;;10.40;6.23;;;-2.00;99.90;;;;;;5054341;28;20495;-57
2024/01/20 09:27:10;;;;;;;13.90;6.57;;;-2.00;99.90;;;;;;5054696;28;20449;-57
2024/01/20 09:29:37;;;;;;;13.73;7.47;;;-1.90;99.90;;;;;;5054103;28;20456;-57
2024/01/20 09:32:06;;;;;;;12.30;6.07;;;-1.90;99.90;;;;;;5053353;28;20864;-57
2024/01/20 09:34:33;;;;;;;8.60;6.23;;;-1.80;99.90;;;;;;5053970;28;20434;-58
2024/01/20 09:36:59;;;;;;;14.33;6.00;;;-1.70;99.90;;;;;;5054026;28;20936;-58
2024/01/20 09:39:26;;;;;;;10.17;6.00;;;-1.70;99.90;;;;;;5054060;28;20827;-57
2024/01/20 09:41:53;;;;;;;10.50;7.03;;;-1.60;99.90;;;;;;5054235;28;20457;-58
2024/01/20 09:44:20;;;;;;;11.13;6.90;;;-1.60;99.90;;;;;;5053946;28;20481;-58
2024/01/20 09:46:46;;;;;;;11.93;6.77;;;-1.50;99.90;;;;;;5053979;28;20935;-57
2024/01/20 09:49:14;;;;;;;15.00;7.30;;;-1.50;99.90;;;;;;5053952;28;20442;-57
2024/01/20 09:51:50;;;;;;;10.67;6.57;;;-1.50;99.90;;;;;;5054025;28;20473;-57
2024/01/20 09:54:19;;;;;;;12.77;6.67;;;-1.40;99.90;;;;;;5053821;28;20433;-57
2024/01/20 09:56:46;;;;;;;10.67;7.33;;;-1.40;99.90;;;;;;5054187;28;20452;-57
2024/01/20 09:59:15;;;;;;;9.73;7.00;;;-1.30;99.90;;;;;;5054426;28;20442;-57
2024/01/20 10:01:43;;;;;;;12.93;7.17;;;-1.20;99.90;;;;;;5054190;28;20472;-56
2024/01/20 10:04:10;;;;;;;13.83;6.30;;;-1.10;99.90;;;;;;5054138;28;20508;-57
2024/01/20 10:06:38;;;;;;;13.23;6.60;;;-1.10;99.90;;;;;;5054390;28;20446;-57
2024/01/20 10:09:06;;;;;;;11.53;7.27;;;-1.10;99.90;;;;;;5053516;28;20477;-57
2024/01/20 10:11:33;;;;;;;13.90;7.00;;;-1.00;99.90;;;;;;5054800;28;20465;-57
2024/01/20 10:13:59;;;;;;;13.63;8.00;;;-0.90;99.90;;;;;;5055223;28;20445;-56
2024/01/20 10:16:26;;;;;;;13.03;7.30;;;-0.90;99.90;;;;;;5055335;28;20854;-57
2024/01/20 10:18:53;;;;;;;7.07;5.63;;;-0.90;99.90;;;;;;5056250;28;20449;-57
2024/01/20 10:21:21;;;;;;;12.77;6.77;;;-0.90;99.90;;;;;;5053230;28;20465;-57
2024/01/20 10:23:49;;;;;;;11.13;7.00;;;-0.90;99.90;;;;;;5053142;28;20457;-57
2024/01/20 10:26:16;;;;;;;15.97;8.17;;;-0.90;99.90;;;;;;5053272;28;20472;-55
2024/01/20 10:28:43;;;;;;;14.33;6.77;;;-0.90;99.90;;;;;;5052827;28;20966;-55
2024/01/20 10:31:10;;;;;;;10.93;7.27;;;-0.80;99.90;;;;;;5052965;28;20505;-55
2024/01/20 10:33:37;;;;;;;11.63;7.33;;;-0.80;99.90;;;;;;5052813;28;20446;-57
2024/01/20 10:36:05;;;;;;;10.20;7.00;;;-0.80;99.90;;;;;;5053025;28;20978;-56
2024/01/20 10:38:38;;;;;;;15.47;8.07;;;-0.70;99.90;;;;;;5052916;28;20445;-56
2024/01/20 10:41:08;;;;;;;12.80;7.83;;;-0.60;99.90;;;;;;5052945;28;20465;-56
2024/01/20 10:43:39;;;;;;;10.27;7.47;;;-0.50;99.90;;;;;;5054920;28;20946;-56
2024/01/20 10:46:12;;;;;;;10.00;6.97;;;-0.50;99.90;;;;;;5057059;28;20497;-57
2024/01/20 10:48:45;;;;;;;14.70;8.50;;;-0.50;99.90;;;;;;5056805;28;20437;-56
2024/01/20 10:51:14;;;;;;;12.63;6.83;;;-0.50;99.90;;;;;;5056743;28;20465;-56
2024/01/20 10:53:41;;;;;;;10.43;7.30;;;-0.50;99.90;;;;;;5056281;28;20464;-56
2024/01/20 10:56:10;;;;;;;9.00;6.93;;;-0.40;99.90;;;;;;5056307;28;20939;-56
2024/01/20 10:58:44;;;;;;;12.53;7.30;;;-0.20;99.90;;;;;;5056604;28;20445;-57
2024/01/20 11:01:12;;;;;;;13.00;7.60;;;-0.20;99.90;;;;;;5056579;28;20496;-57
2024/01/20 11:03:39;;;;;;;10.00;6.67;;;-0.10;99.90;;;;;;5056481;28;20473;-57
2024/01/20 11:06:06;;;;;;;10.53;7.10;;;-0.10;99.90;;;;;;5056881;28;20489;-56
2024/01/20 11:08:33;;;;;;;10.60;7.30;;;0.00;99.90;;;;;;5056892;28;20880;-57
2024/01/20 11:11:00;;;;;;;13.33;7.60;;;0.10;99.90;;;;;;5056460;28;20461;-57
2024/01/20 11:13:28;;;;;;;10.33;6.33;;;0.20;99.90;;;;;;5056267;28;20448;-57
2024/01/20 11:15:57;;;;;;;10.33;7.60;;;0.30;99.90;;;;;;5055847;28;20939;-57
2024/01/20 11:18:25;;;;;;;11.77;6.97;;;0.40;99.90;;;;;;5056213;28;20899;-57
2024/01/20 11:20:58;;;;;;;10.70;6.43;;;0.40;99.90;;;;;;5056133;28;20471;-58
2024/01/20 11:23:25;;;;;;;9.90;6.30;;;0.60;99.90;;;;;;5056140;28;20434;-58
2024/01/20 11:25:52;;;;;;;10.03;6.87;;;0.70;99.90;;;;;;5055697;28;20995;-57
2024/01/20 11:28:26;;;;;;;10.40;7.47;;;0.80;99.90;;;;;;5055918;28;20442;-58
2024/01/20 11:30:54;;;;;;;13.20;7.63;;;0.80;99.90;;;;;;5055614;28;20970;-58
2024/01/20 11:33:21;;;;;;;8.10;6.33;;;1.00;99.90;;;;;;5055811;28;20442;-58
2024/01/20 11:35:48;;;;;;;8.37;6.00;;;1.00;99.90;;;;;;5055490;28;20948;-58
2024/01/20 11:38:16;;;;;;;11.63;7.17;;;1.10;99.90;;;;;;5055600;28;21009;-58
2024/01/20 11:40:42;;;;;;;9.97;6.27;;;1.20;99.60;;;;;;5055837;28;20461;-58
2024/01/20 11:43:11;;;;;;;11.67;6.33;;;1.20;99.30;;;;;;5055808;28;20450;-58
2024/01/20 11:45:37;;;;;;;9.90;6.50;;;1.30;99.70;;;;;;5055551;28;20517;-57
2024/01/20 11:48:06;;;;;;;10.77;6.70;;;1.40;99.30;;;;;;5055638;28;20449;-58
2024/01/20 11:50:33;;;;;;;10.03;5.93;;;1.50;98.80;;;;;;5055533;28;20466;-58
2024/01/20 11:53:00;;;;;;;8.60;6.07;;;1.50;98.60;;;;;;5054960;28;20454;-58
2024/01/20 11:55:27;;;;;;;7.47;6.43;;;1.70;99.00;;;;;;5055098;28;20472;-58
2024/01/20 11:57:55;;;;;;;8.53;6.30;;;1.70;99.30;;;;;;5055120;28;21004;-58
2024/01/20 12:00:22;;;;;;;8.70;6.40;;;1.90;99.40;;;;;;5055229;28;20442;-58
2024/01/20 12:02:50;;;;;;;8.40;6.00;;;1.90;99.40;;;;;;5055988;28;20441;-58
2024/01/20 12:05:18;;;;;;;8.67;5.97;;;2.10;98.70;;;;;;5057920;28;20516;-58
2024/01/20 12:07:45;;;;;;;7.90;5.83;;;2.20;98.30;;;;;;5057445;28;20441;-58
2024/01/20 12:10:14;;;;;;;11.60;5.80;;;2.20;97.50;;;;;;5056458;28;20441;-58
2024/01/20 12:12:41;;;;;;;8.90;6.00;;;2.30;97.20;;;;;;5055539;28;20529;-58
2024/01/20 12:15:09;;;;;;;9.67;6.33;;;2.30;96.50;;;;;;5055355;28;20446;-58
2024/01/20 12:17:36;;;;;;;10.37;6.03;;;2.40;96.90;;;;;;5055077;28;20449;-58
2024/01/20 12:20:03;;;;;;;7.47;6.03;;;2.40;97.00;;;;;;5055174;28;21002;-58
2024/01/20 12:22:32;;;;;;;8.63;5.70;;;2.50;97.00;;;;;;5055176;28;20462;-58
2024/01/20 12:24:59;;;;;;;9.33;6.90;;;2.50;97.00;;;;;;5055185;28;20482;-58
2024/01/20 12:27:26;;;;;;;10.37;6.77;;;2.60;96.80;;;;;;5055116;28;20449;-58
2024/01/20 12:29:52;;;;;;;8.97;5.80;;;2.70;96.80;;;;;;5055043;28;20446;-58
2024/01/20 12:32:19;;;;;;;12.03;7.33;;;2.80;96.90;;;;;;5054869;28;20469;-58
2024/01/20 12:34:46;;;;;;;11.50;5.50;;;2.90;96.40;;;;;;5054669;28;20463;-58